sensor_id;sensor_type;location;lat;lon;timestamp;temperature;humidity
9177;DHT22;4623;54.310;10.112;2022-10-26T00:00:25;12.60;99.90
9177;DHT22;4623;54.310;10.112;2022-10-26T00:02:53;12.50;99.90
9177;DHT22;4623;54.310;10.112;2022-10-26T00:05:20;12.50;99.90
9177;DHT22;4623;54.310;10.112;2022-10-26T00:07:46;12.50;99.90
9177;DHT22;4623;54.310;10.112;2022-10-26T00:10:12;12.50;99.90
9177;DHT22;4623;54.310;10.112;2022-10-26T00:12:38;12.40;99.90
9177;DHT22;4623;54.310;10.112;2022-10-26T00:15:04;12.40;99.90
9177;DHT22;4623;54.310;10.112;2022-10-26T00:17:29;12.40;99.90
9177;DHT22;4623;54.310;10.112;2022-10-26T00:19:55;12.40;99.90
9177;DHT22;4623;54.310;10.112;2022-10-26T00:22:22;12.40;99.90
9177;DHT22;4623;54.310;10.112;2022-10-26T00:24:47;12.40;99.90
9177;DHT22;4623;54.310;10.112;2022-10-26T00:27:13;12.40;99.90
9177;DHT22;4623;54.310;10.112;2022-10-26T00:29:39;12.40;99.90
9177;DHT22;4623;54.310;10.112;2022-10-26T00:32:05;12.40;99.90
9177;DHT22;4623;54.310;10.112;2022-10-26T00:34:31;12.40;99.90
9177;DHT22;4623;54.310;10.112;2022-10-26T00:36:57;12.40;99.90
9177;DHT22;4623;54.310;10.112;2022-10-26T00:39:22;12.40;99.90
9177;DHT22;4623;54.310;10.112;2022-10-26T00:41:48;12.30;99.90
9177;DHT22;4623;54.310;10.112;2022-10-26T00:47:21;12.30;99.90
9177;DHT22;4623;54.310;10.112;2022-10-26T00:49:50;12.30;99.90
9177;DHT22;4623;54.310;10.112;2022-10-26T00:52:19;12.20;99.90
9177;DHT22;4623;54.310;10.112;2022-10-26T00:54:45;12.20;99.90
9177;DHT22;4623;54.310;10.112;2022-10-26T00:57:14;12.20;99.90
9177;DHT22;4623;54.310;10.112;2022-10-26T00:59:41;12.20;99.90
9177;DHT22;4623;54.310;10.112;2022-10-26T01:02:07;12.20;99.90
9177;DHT22;4623;54.310;10.112;2022-10-26T01:04:34;12.20;99.90
9177;DHT22;4623;54.310;10.112;2022-10-26T01:07:00;12.20;99.90
9177;DHT22;4623;54.310;10.112;2022-10-26T01:09:28;12.10;99.90
9177;DHT22;4623;54.310;10.112;2022-10-26T01:11:53;12.20;99.90
9177;DHT22;4623;54.310;10.112;2022-10-26T01:14:19;12.10;99.90
9177;DHT22;4623;54.310;10.112;2022-10-26T01:19:25;12.10;99.90
9177;DHT22;4623;54.310;10.112;2022-10-26T01:27:22;12.10;99.90
9177;DHT22;4623;54.310;10.112;2022-10-26T01:30:12;12.00;99.90
9177;DHT22;4623;54.310;10.112;2022-10-26T01:41:12;11.90;99.90
9177;DHT22;4623;54.310;10.112;2022-10-26T01:43:46;11.90;99.90
9177;DHT22;4623;54.310;10.112;2022-10-26T01:46:14;11.90;99.90
9177;DHT22;4623;54.310;10.112;2022-10-26T01:48:43;11.90;99.90
9177;DHT22;4623;54.310;10.112;2022-10-26T01:51:10;11.90;99.90
9177;DHT22;4623;54.310;10.112;2022-10-26T01:53:45;11.80;99.90
9177;DHT22;4623;54.310;10.112;2022-10-26T01:56:22;11.80;99.90
9177;DHT22;4623;54.310;10.112;2022-10-26T01:58:55;11.80;99.90
9177;DHT22;4623;54.310;10.112;2022-10-26T02:04:19;11.80;99.90
9177;DHT22;4623;54.310;10.112;2022-10-26T02:07:04;11.80;99.90
9177;DHT22;4623;54.310;10.112;2022-10-26T02:12:03;11.80;99.90
9177;DHT22;4623;54.310;10.112;2022-10-26T02:14:50;11.80;99.90
9177;DHT22;4623;54.310;10.112;2022-10-26T02:17:28;11.80;99.90
9177;DHT22;4623;54.310;10.112;2022-10-26T02:20:03;11.80;99.90
9177;DHT22;4623;54.310;10.112;2022-10-26T02:22:36;11.80;99.90
9177;DHT22;4623;54.310;10.112;2022-10-26T02:25:22;11.70;99.90
9177;DHT22;4623;54.310;10.112;2022-10-26T02:27:54;11.80;99.90
9177;DHT22;4623;54.310;10.112;2022-10-26T02:30:21;11.80;99.90
9177;DHT22;4623;54.310;10.112;2022-10-26T02:32:51;11.70;99.90
9177;DHT22;4623;54.310;10.112;2022-10-26T02:35:22;11.70;99.90
9177;DHT22;4623;54.310;10.112;2022-10-26T02:37:50;11.70;99.90
9177;DHT22;4623;54.310;10.112;2022-10-26T02:40:21;11.70;99.90
9177;DHT22;4623;54.310;10.112;2022-10-26T02:42:49;11.70;99.90
9177;DHT22;4623;54.310;10.112;2022-10-26T02:45:29;11.70;99.90
9177;DHT22;4623;54.310;10.112;2022-10-26T02:47:56;11.70;99.90
9177;DHT22;4623;54.310;10.112;2022-10-26T02:50:26;11.70;99.90
9177;DHT22;4623;54.310;10.112;2022-10-26T02:55:33;11.70;99.90
9177;DHT22;4623;54.310;10.112;2022-10-26T02:58:04;11.70;99.90
9177;DHT22;4623;54.310;10.112;2022-10-26T03:00:31;11.70;99.90
9177;DHT22;4623;54.310;10.112;2022-10-26T03:02:57;11.70;99.90
9177;DHT22;4623;54.310;10.112;2022-10-26T03:05:26;11.70;99.90
9177;DHT22;4623;54.310;10.112;2022-10-26T03:07:52;11.70;99.90
9177;DHT22;4623;54.310;10.112;2022-10-26T03:10:18;11.70;99.90
9177;DHT22;4623;54.310;10.112;2022-10-26T03:12:44;11.70;99.90
9177;DHT22;4623;54.310;10.112;2022-10-26T03:15:10;11.70;99.90
9177;DHT22;4623;54.310;10.112;2022-10-26T03:17:36;11.60;99.90
9177;DHT22;4623;54.310;10.112;2022-10-26T03:20:02;11.60;99.90
9177;DHT22;4623;54.310;10.112;2022-10-26T03:22:28;11.60;99.90
9177;DHT22;4623;54.310;10.112;2022-10-26T03:24:54;11.60;99.90
9177;DHT22;4623;54.310;10.112;2022-10-26T03:27:19;11.60;99.90
9177;DHT22;4623;54.310;10.112;2022-10-26T03:29:45;11.60;99.90
9177;DHT22;4623;54.310;10.112;2022-10-26T03:32:11;11.60;99.90
9177;DHT22;4623;54.310;10.112;2022-10-26T03:34:36;11.50;99.90
9177;DHT22;4623;54.310;10.112;2022-10-26T03:37:02;11.50;99.90
9177;DHT22;4623;54.310;10.112;2022-10-26T03:39:27;11.50;99.90
9177;DHT22;4623;54.310;10.112;2022-10-26T03:41:53;11.40;99.90
9177;DHT22;4623;54.310;10.112;2022-10-26T03:44:20;11.40;99.90
9177;DHT22;4623;54.310;10.112;2022-10-26T03:46:46;11.40;99.90
9177;DHT22;4623;54.310;10.112;2022-10-26T03:49:11;11.40;99.90
9177;DHT22;4623;54.310;10.112;2022-10-26T03:51:37;11.40;99.90
9177;DHT22;4623;54.310;10.112;2022-10-26T03:54:03;11.30;99.90
9177;DHT22;4623;54.310;10.112;2022-10-26T03:56:28;11.30;99.90
9177;DHT22;4623;54.310;10.112;2022-10-26T03:58:54;11.30;99.90
9177;DHT22;4623;54.310;10.112;2022-10-26T04:01:20;11.40;99.90
9177;DHT22;4623;54.310;10.112;2022-10-26T04:03:45;11.40;99.90
9177;DHT22;4623;54.310;10.112;2022-10-26T04:06:11;11.40;99.90
9177;DHT22;4623;54.310;10.112;2022-10-26T04:08:36;11.40;99.90
9177;DHT22;4623;54.310;10.112;2022-10-26T04:11:02;11.40;99.90
9177;DHT22;4623;54.310;10.112;2022-10-26T04:13:28;11.30;99.90
9177;DHT22;4623;54.310;10.112;2022-10-26T04:15:53;11.30;99.90
9177;DHT22;4623;54.310;10.112;2022-10-26T04:18:19;11.30;99.90
9177;DHT22;4623;54.310;10.112;2022-10-26T04:20:44;11.20;99.90
9177;DHT22;4623;54.310;10.112;2022-10-26T04:23:12;11.20;99.90
9177;DHT22;4623;54.310;10.112;2022-10-26T04:25:39;11.20;99.90
9177;DHT22;4623;54.310;10.112;2022-10-26T04:28:05;11.20;99.90
9177;DHT22;4623;54.310;10.112;2022-10-26T04:30:32;11.20;99.90
9177;DHT22;4623;54.310;10.112;2022-10-26T04:32:58;11.20;99.90
9177;DHT22;4623;54.310;10.112;2022-10-26T04:35:24;11.20;99.90
9177;DHT22;4623;54.310;10.112;2022-10-26T04:37:50;11.10;99.90
9177;DHT22;4623;54.310;10.112;2022-10-26T04:40:16;11.10;99.90
9177;DHT22;4623;54.310;10.112;2022-10-26T04:42:43;11.20;99.90
9177;DHT22;4623;54.310;10.112;2022-10-26T04:45:09;11.20;99.90
9177;DHT22;4623;54.310;10.112;2022-10-26T04:47:35;11.20;99.90
9177;DHT22;4623;54.310;10.112;2022-10-26T04:50:01;11.20;99.90
9177;DHT22;4623;54.310;10.112;2022-10-26T04:52:26;11.20;99.90
9177;DHT22;4623;54.310;10.112;2022-10-26T04:54:52;11.20;99.90
9177;DHT22;4623;54.310;10.112;2022-10-26T04:57:17;11.20;99.90
9177;DHT22;4623;54.310;10.112;2022-10-26T04:59:43;11.20;99.90
9177;DHT22;4623;54.310;10.112;2022-10-26T05:02:08;11.20;99.90
9177;DHT22;4623;54.310;10.112;2022-10-26T05:04:34;11.20;99.90
9177;DHT22;4623;54.310;10.112;2022-10-26T05:07:00;11.20;99.90
9177;DHT22;4623;54.310;10.112;2022-10-26T05:09:25;11.20;99.90
9177;DHT22;4623;54.310;10.112;2022-10-26T05:11:51;11.10;99.90
9177;DHT22;4623;54.310;10.112;2022-10-26T05:14:16;11.10;99.90
9177;DHT22;4623;54.310;10.112;2022-10-26T05:16:42;11.10;99.90
9177;DHT22;4623;54.310;10.112;2022-10-26T05:19:09;11.10;99.90
9177;DHT22;4623;54.310;10.112;2022-10-26T05:21:35;11.10;99.90
9177;DHT22;4623;54.310;10.112;2022-10-26T05:24:00;11.10;99.90
9177;DHT22;4623;54.310;10.112;2022-10-26T05:26:27;11.00;99.90
9177;DHT22;4623;54.310;10.112;2022-10-26T05:28:52;11.00;99.90
9177;DHT22;4623;54.310;10.112;2022-10-26T05:31:19;11.00;99.90
9177;DHT22;4623;54.310;10.112;2022-10-26T05:33:48;10.90;99.90
9177;DHT22;4623;54.310;10.112;2022-10-26T05:36:15;10.90;99.90
9177;DHT22;4623;54.310;10.112;2022-10-26T05:38:41;10.90;99.90
9177;DHT22;4623;54.310;10.112;2022-10-26T05:41:06;10.90;99.90
9177;DHT22;4623;54.310;10.112;2022-10-26T05:43:32;10.80;99.90
9177;DHT22;4623;54.310;10.112;2022-10-26T05:45:58;10.80;99.90
9177;DHT22;4623;54.310;10.112;2022-10-26T05:48:23;10.80;99.90
9177;DHT22;4623;54.310;10.112;2022-10-26T05:50:49;10.80;99.90
9177;DHT22;4623;54.310;10.112;2022-10-26T05:53:15;10.80;99.90
9177;DHT22;4623;54.310;10.112;2022-10-26T05:55:41;10.80;99.90
9177;DHT22;4623;54.310;10.112;2022-10-26T05:58:11;10.70;99.90
9177;DHT22;4623;54.310;10.112;2022-10-26T06:00:44;10.70;99.90
9177;DHT22;4623;54.310;10.112;2022-10-26T06:03:25;10.80;99.90
9177;DHT22;4623;54.310;10.112;2022-10-26T06:05:57;10.80;99.90
9177;DHT22;4623;54.310;10.112;2022-10-26T06:08:28;10.80;99.90
9177;DHT22;4623;54.310;10.112;2022-10-26T06:10:55;10.80;99.90
9177;DHT22;4623;54.310;10.112;2022-10-26T06:13:21;10.80;99.90
9177;DHT22;4623;54.310;10.112;2022-10-26T06:24:35;10.80;99.90
9177;DHT22;4623;54.310;10.112;2022-10-26T06:32:07;10.90;99.90
9177;DHT22;4623;54.310;10.112;2022-10-26T06:34:34;10.90;99.90
9177;DHT22;4623;54.310;10.112;2022-10-26T06:37:01;11.00;99.90
9177;DHT22;4623;54.310;10.112;2022-10-26T06:39:30;11.00;99.90
9177;DHT22;4623;54.310;10.112;2022-10-26T06:42:00;11.00;99.90
9177;DHT22;4623;54.310;10.112;2022-10-26T06:44:26;11.00;99.90
9177;DHT22;4623;54.310;10.112;2022-10-26T06:54:50;11.10;99.90
9177;DHT22;4623;54.310;10.112;2022-10-26T06:57:18;11.20;99.90
9177;DHT22;4623;54.310;10.112;2022-10-26T07:00:07;11.30;99.90
9177;DHT22;4623;54.310;10.112;2022-10-26T07:02:33;11.40;99.90
9177;DHT22;4623;54.310;10.112;2022-10-26T07:04:59;11.50;99.90
9177;DHT22;4623;54.310;10.112;2022-10-26T07:07:26;11.60;99.90
9177;DHT22;4623;54.310;10.112;2022-10-26T07:09:53;11.80;99.90
9177;DHT22;4623;54.310;10.112;2022-10-26T07:12:19;11.80;99.90
9177;DHT22;4623;54.310;10.112;2022-10-26T07:14:45;11.90;99.90
9177;DHT22;4623;54.310;10.112;2022-10-26T07:17:10;11.90;99.90
9177;DHT22;4623;54.310;10.112;2022-10-26T07:19:36;11.90;99.90
9177;DHT22;4623;54.310;10.112;2022-10-26T07:22:02;12.00;99.90
9177;DHT22;4623;54.310;10.112;2022-10-26T07:24:28;12.00;99.90
9177;DHT22;4623;54.310;10.112;2022-10-26T07:26:54;12.10;99.90
9177;DHT22;4623;54.310;10.112;2022-10-26T07:29:21;12.30;99.90
9177;DHT22;4623;54.310;10.112;2022-10-26T07:31:46;12.40;99.90
9177;DHT22;4623;54.310;10.112;2022-10-26T07:34:12;12.50;99.90
9177;DHT22;4623;54.310;10.112;2022-10-26T07:36:38;12.50;99.90
9177;DHT22;4623;54.310;10.112;2022-10-26T07:39:04;12.60;99.90
9177;DHT22;4623;54.310;10.112;2022-10-26T07:41:30;12.60;99.90
9177;DHT22;4623;54.310;10.112;2022-10-26T07:43:56;12.70;99.90
9177;DHT22;4623;54.310;10.112;2022-10-26T07:46:22;12.80;99.90
9177;DHT22;4623;54.310;10.112;2022-10-26T07:48:48;12.80;99.90
9177;DHT22;4623;54.310;10.112;2022-10-26T07:51:13;12.80;99.90
9177;DHT22;4623;54.310;10.112;2022-10-26T07:53:39;12.80;99.90
9177;DHT22;4623;54.310;10.112;2022-10-26T07:56:05;12.90;99.90
9177;DHT22;4623;54.310;10.112;2022-10-26T07:58:31;13.00;99.90
9177;DHT22;4623;54.310;10.112;2022-10-26T08:00:57;13.00;99.90
9177;DHT22;4623;54.310;10.112;2022-10-26T08:03:29;13.20;99.90
9177;DHT22;4623;54.310;10.112;2022-10-26T08:05:54;13.40;99.90
9177;DHT22;4623;54.310;10.112;2022-10-26T08:08:20;13.30;99.90
9177;DHT22;4623;54.310;10.112;2022-10-26T08:10:47;13.30;99.90
9177;DHT22;4623;54.310;10.112;2022-10-26T08:13:13;13.70;99.90
9177;DHT22;4623;54.310;10.112;2022-10-26T08:15:39;14.30;99.90
9177;DHT22;4623;54.310;10.112;2022-10-26T08:18:05;14.70;99.90
9177;DHT22;4623;54.310;10.112;2022-10-26T08:20:31;14.90;99.90
9177;DHT22;4623;54.310;10.112;2022-10-26T08:22:58;15.30;99.90
9177;DHT22;4623;54.310;10.112;2022-10-26T08:25:24;16.00;99.90
9177;DHT22;4623;54.310;10.112;2022-10-26T08:27:49;16.60;99.90
9177;DHT22;4623;54.310;10.112;2022-10-26T08:30:15;17.30;99.90
9177;DHT22;4623;54.310;10.112;2022-10-26T08:32:40;17.80;99.90
9177;DHT22;4623;54.310;10.112;2022-10-26T08:35:09;18.10;99.90
9177;DHT22;4623;54.310;10.112;2022-10-26T08:37:35;18.60;99.90
9177;DHT22;4623;54.310;10.112;2022-10-26T08:40:02;18.90;99.90
9177;DHT22;4623;54.310;10.112;2022-10-26T08:42:38;19.20;99.90
9177;DHT22;4623;54.310;10.112;2022-10-26T08:45:56;19.60;99.90
9177;DHT22;4623;54.310;10.112;2022-10-26T08:47:59;20.10;99.90
9177;DHT22;4623;54.310;10.112;2022-10-26T08:50:35;20.70;99.90
9177;DHT22;4623;54.310;10.112;2022-10-26T08:55:53;21.20;99.90
9177;DHT22;4623;54.310;10.112;2022-10-26T08:58:22;21.40;99.90
9177;DHT22;4623;54.310;10.112;2022-10-26T09:00:49;21.60;99.90
9177;DHT22;4623;54.310;10.112;2022-10-26T09:03:17;21.90;99.90
9177;DHT22;4623;54.310;10.112;2022-10-26T09:08:46;22.10;99.90
9177;DHT22;4623;54.310;10.112;2022-10-26T09:22:26;23.30;99.90
9177;DHT22;4623;54.310;10.112;2022-10-26T09:24:56;23.00;98.20
9177;DHT22;4623;54.310;10.112;2022-10-26T09:27:41;23.00;98.60
9177;DHT22;4623;54.310;10.112;2022-10-26T09:30:19;22.60;99.90
9177;DHT22;4623;54.310;10.112;2022-10-26T09:32:48;23.00;99.90
9177;DHT22;4623;54.310;10.112;2022-10-26T09:35:27;22.80;99.90
9177;DHT22;4623;54.310;10.112;2022-10-26T09:38:01;23.20;99.90
9177;DHT22;4623;54.310;10.112;2022-10-26T09:40:37;23.70;99.90
9177;DHT22;4623;54.310;10.112;2022-10-26T09:43:17;23.70;98.50
9177;DHT22;4623;54.310;10.112;2022-10-26T09:45:52;23.80;97.60
9177;DHT22;4623;54.310;10.112;2022-10-26T09:51:01;25.10;96.50
9177;DHT22;4623;54.310;10.112;2022-10-26T09:53:27;25.10;95.80
9177;DHT22;4623;54.310;10.112;2022-10-26T09:58:31;25.30;90.30
9177;DHT22;4623;54.310;10.112;2022-10-26T10:00:58;24.80;90.60
9177;DHT22;4623;54.310;10.112;2022-10-26T10:03:27;24.00;92.10
9177;DHT22;4623;54.310;10.112;2022-10-26T10:05:55;24.10;94.70
9177;DHT22;4623;54.310;10.112;2022-10-26T10:08:38;23.90;96.10
9177;DHT22;4623;54.310;10.112;2022-10-26T10:13:36;24.20;91.50
9177;DHT22;4623;54.310;10.112;2022-10-26T10:16:05;24.10;93.90
9177;DHT22;4623;54.310;10.112;2022-10-26T10:18:32;23.70;92.50
9177;DHT22;4623;54.310;10.112;2022-10-26T10:20:58;23.20;93.20
9177;DHT22;4623;54.310;10.112;2022-10-26T10:23:27;23.00;96.40
9177;DHT22;4623;54.310;10.112;2022-10-26T10:28:26;23.30;97.10
9177;DHT22;4623;54.310;10.112;2022-10-26T10:30:57;23.70;97.70
9177;DHT22;4623;54.310;10.112;2022-10-26T10:33:40;24.10;96.80
9177;DHT22;4623;54.310;10.112;2022-10-26T10:36:18;25.00;91.80
9177;DHT22;4623;54.310;10.112;2022-10-26T10:38:46;24.80;90.30
9177;DHT22;4623;54.310;10.112;2022-10-26T10:41:25;25.00;93.00
9177;DHT22;4623;54.310;10.112;2022-10-26T10:44:06;25.50;89.60
9177;DHT22;4623;54.310;10.112;2022-10-26T10:46:34;25.30;83.30
9177;DHT22;4623;54.310;10.112;2022-10-26T10:49:05;24.90;86.90
9177;DHT22;4623;54.310;10.112;2022-10-26T10:51:37;24.30;85.50
9177;DHT22;4623;54.310;10.112;2022-10-26T10:54:05;23.70;90.30
9177;DHT22;4623;54.310;10.112;2022-10-26T10:56:50;23.00;92.50
9177;DHT22;4623;54.310;10.112;2022-10-26T10:59:40;22.90;93.30
9177;DHT22;4623;54.310;10.112;2022-10-26T11:07:31;22.90;94.80
9177;DHT22;4623;54.310;10.112;2022-10-26T11:10:02;22.80;95.20
9177;DHT22;4623;54.310;10.112;2022-10-26T11:12:34;22.70;95.30
9177;DHT22;4623;54.310;10.112;2022-10-26T11:15:13;22.60;95.10
9177;DHT22;4623;54.310;10.112;2022-10-26T11:17:59;22.10;96.20
9177;DHT22;4623;54.310;10.112;2022-10-26T11:20:29;21.90;98.80
9177;DHT22;4623;54.310;10.112;2022-10-26T11:25:39;21.70;99.90
9177;DHT22;4623;54.310;10.112;2022-10-26T11:28:15;21.90;99.90
9177;DHT22;4623;54.310;10.112;2022-10-26T11:30:48;22.00;99.90
9177;DHT22;4623;54.310;10.112;2022-10-26T11:33:37;22.00;99.90
9177;DHT22;4623;54.310;10.112;2022-10-26T11:36:12;22.00;99.90
9177;DHT22;4623;54.310;10.112;2022-10-26T11:38:53;21.80;99.90
9177;DHT22;4623;54.310;10.112;2022-10-26T11:41:42;22.00;99.90
9177;DHT22;4623;54.310;10.112;2022-10-26T11:46:54;21.40;99.90
9177;DHT22;4623;54.310;10.112;2022-10-26T11:49:33;21.00;99.90
9177;DHT22;4623;54.310;10.112;2022-10-26T11:54:32;21.40;99.90
9177;DHT22;4623;54.310;10.112;2022-10-26T11:56:59;22.80;99.90
9177;DHT22;4623;54.310;10.112;2022-10-26T11:59:31;24.60;99.90
9177;DHT22;4623;54.310;10.112;2022-10-26T12:02:05;25.30;94.90
9177;DHT22;4623;54.310;10.112;2022-10-26T12:04:35;25.60;88.80
9177;DHT22;4623;54.310;10.112;2022-10-26T12:07:12;26.30;86.30
9177;DHT22;4623;54.310;10.112;2022-10-26T12:09:43;26.30;82.90
9177;DHT22;4623;54.310;10.112;2022-10-26T12:12:20;26.40;80.60
9177;DHT22;4623;54.310;10.112;2022-10-26T12:15:14;26.40;75.00
9177;DHT22;4623;54.310;10.112;2022-10-26T12:17:55;26.50;76.30
9177;DHT22;4623;54.310;10.112;2022-10-26T12:23:03;27.00;77.10
9177;DHT22;4623;54.310;10.112;2022-10-26T12:25:29;26.90;74.90
9177;DHT22;4623;54.310;10.112;2022-10-26T12:27:55;27.00;74.10
9177;DHT22;4623;54.310;10.112;2022-10-26T12:30:34;26.20;72.40
9177;DHT22;4623;54.310;10.112;2022-10-26T12:33:27;25.20;74.90
9177;DHT22;4623;54.310;10.112;2022-10-26T12:35:53;24.40;80.50
9177;DHT22;4623;54.310;10.112;2022-10-26T12:41:18;24.00;87.30
9177;DHT22;4623;54.310;10.112;2022-10-26T12:43:44;24.20;85.90
9177;DHT22;4623;54.310;10.112;2022-10-26T12:48:38;23.50;87.50
9177;DHT22;4623;54.310;10.112;2022-10-26T12:56:28;21.10;99.60
9177;DHT22;4623;54.310;10.112;2022-10-26T13:07:25;20.00;99.90
9177;DHT22;4623;54.310;10.112;2022-10-26T13:09:57;20.20;99.90
9177;DHT22;4623;54.310;10.112;2022-10-26T13:12:24;20.30;99.90
9177;DHT22;4623;54.310;10.112;2022-10-26T13:14:58;20.20;99.90
9177;DHT22;4623;54.310;10.112;2022-10-26T13:17:27;20.20;99.90
9177;DHT22;4623;54.310;10.112;2022-10-26T13:20:00;20.20;99.90
9177;DHT22;4623;54.310;10.112;2022-10-26T13:22:26;20.20;99.90
9177;DHT22;4623;54.310;10.112;2022-10-26T13:25:01;20.20;99.90
9177;DHT22;4623;54.310;10.112;2022-10-26T13:28:04;20.10;99.90
9177;DHT22;4623;54.310;10.112;2022-10-26T13:32:59;19.70;99.90
9177;DHT22;4623;54.310;10.112;2022-10-26T13:35:26;19.60;99.90
9177;DHT22;4623;54.310;10.112;2022-10-26T13:37:54;19.60;99.90
9177;DHT22;4623;54.310;10.112;2022-10-26T13:40:26;19.70;99.90
9177;DHT22;4623;54.310;10.112;2022-10-26T13:42:57;19.70;99.90
9177;DHT22;4623;54.310;10.112;2022-10-26T13:45:36;19.60;99.90
9177;DHT22;4623;54.310;10.112;2022-10-26T13:48:23;19.40;99.90
9177;DHT22;4623;54.310;10.112;2022-10-26T13:50:57;19.30;99.90
9177;DHT22;4623;54.310;10.112;2022-10-26T13:56:34;19.30;99.90
9177;DHT22;4623;54.310;10.112;2022-10-26T14:01:28;19.40;99.90
9177;DHT22;4623;54.310;10.112;2022-10-26T14:03:55;19.50;99.90
9177;DHT22;4623;54.310;10.112;2022-10-26T14:06:25;19.50;99.90
9177;DHT22;4623;54.310;10.112;2022-10-26T14:08:54;19.30;99.90
9177;DHT22;4623;54.310;10.112;2022-10-26T14:11:25;19.30;99.90
9177;DHT22;4623;54.310;10.112;2022-10-26T14:13:52;19.30;99.90
9177;DHT22;4623;54.310;10.112;2022-10-26T14:16:19;19.40;99.90
9177;DHT22;4623;54.310;10.112;2022-10-26T14:18:46;19.40;99.90
9177;DHT22;4623;54.310;10.112;2022-10-26T14:21:15;19.20;99.90
9177;DHT22;4623;54.310;10.112;2022-10-26T14:23:54;19.20;99.90
9177;DHT22;4623;54.310;10.112;2022-10-26T14:29:18;19.30;99.90
9177;DHT22;4623;54.310;10.112;2022-10-26T14:31:45;19.20;99.90
9177;DHT22;4623;54.310;10.112;2022-10-26T14:34:11;19.00;99.90
9177;DHT22;4623;54.310;10.112;2022-10-26T14:41:52;19.00;99.90
9177;DHT22;4623;54.310;10.112;2022-10-26T14:44:22;18.90;99.90
9177;DHT22;4623;54.310;10.112;2022-10-26T14:46:48;18.80;99.90
9177;DHT22;4623;54.310;10.112;2022-10-26T14:49:27;18.60;99.90
9177;DHT22;4623;54.310;10.112;2022-10-26T14:52:04;18.40;99.90
9177;DHT22;4623;54.310;10.112;2022-10-26T14:54:31;18.20;99.90
9177;DHT22;4623;54.310;10.112;2022-10-26T14:56:59;18.20;99.90
9177;DHT22;4623;54.310;10.112;2022-10-26T14:59:32;18.10;99.90
9177;DHT22;4623;54.310;10.112;2022-10-26T15:02:20;18.10;99.90
9177;DHT22;4623;54.310;10.112;2022-10-26T15:05:00;18.10;99.90
9177;DHT22;4623;54.310;10.112;2022-10-26T15:07:36;18.00;99.90
9177;DHT22;4623;54.310;10.112;2022-10-26T15:10:04;17.90;99.90
9177;DHT22;4623;54.310;10.112;2022-10-26T15:12:37;17.80;99.90
9177;DHT22;4623;54.310;10.112;2022-10-26T15:15:29;17.80;99.90
9177;DHT22;4623;54.310;10.112;2022-10-26T15:17:56;17.80;99.90
9177;DHT22;4623;54.310;10.112;2022-10-26T15:20:26;17.70;99.90
9177;DHT22;4623;54.310;10.112;2022-10-26T15:23:00;17.70;99.90
9177;DHT22;4623;54.310;10.112;2022-10-26T15:25:31;17.60;99.90
9177;DHT22;4623;54.310;10.112;2022-10-26T15:28:24;17.60;99.90
9177;DHT22;4623;54.310;10.112;2022-10-26T15:31:03;17.70;99.90
9177;DHT22;4623;54.310;10.112;2022-10-26T15:33:29;17.70;99.90
9177;DHT22;4623;54.310;10.112;2022-10-26T15:38:36;17.60;99.90
9177;DHT22;4623;54.310;10.112;2022-10-26T15:41:21;17.40;99.90
9177;DHT22;4623;54.310;10.112;2022-10-26T15:43:49;17.30;99.90
9177;DHT22;4623;54.310;10.112;2022-10-26T15:46:15;17.20;99.90
9177;DHT22;4623;54.310;10.112;2022-10-26T15:48:41;17.10;99.90
9177;DHT22;4623;54.310;10.112;2022-10-26T15:51:12;17.00;99.90
9177;DHT22;4623;54.310;10.112;2022-10-26T15:53:38;17.10;99.90
9177;DHT22;4623;54.310;10.112;2022-10-26T15:56:07;17.10;99.90
9177;DHT22;4623;54.310;10.112;2022-10-26T15:58:37;17.10;99.90
9177;DHT22;4623;54.310;10.112;2022-10-26T16:01:03;17.10;99.90
9177;DHT22;4623;54.310;10.112;2022-10-26T16:03:29;17.10;99.90
9177;DHT22;4623;54.310;10.112;2022-10-26T16:05:59;17.00;99.90
9177;DHT22;4623;54.310;10.112;2022-10-26T16:08:31;17.00;99.90
9177;DHT22;4623;54.310;10.112;2022-10-26T16:10:57;17.00;99.90
9177;DHT22;4623;54.310;10.112;2022-10-26T16:13:23;16.90;99.90
9177;DHT22;4623;54.310;10.112;2022-10-26T16:15:48;16.90;99.90
9177;DHT22;4623;54.310;10.112;2022-10-26T16:18:14;16.90;99.90
9177;DHT22;4623;54.310;10.112;2022-10-26T16:20:40;16.90;99.90
9177;DHT22;4623;54.310;10.112;2022-10-26T16:23:05;16.90;99.90
9177;DHT22;4623;54.310;10.112;2022-10-26T16:25:40;16.90;99.90
9177;DHT22;4623;54.310;10.112;2022-10-26T16:28:06;16.90;99.90
9177;DHT22;4623;54.310;10.112;2022-10-26T16:30:31;16.80;99.90
9177;DHT22;4623;54.310;10.112;2022-10-26T16:32:57;16.70;99.90
9177;DHT22;4623;54.310;10.112;2022-10-26T16:35:23;16.70;99.90
9177;DHT22;4623;54.310;10.112;2022-10-26T16:37:48;16.70;99.90
9177;DHT22;4623;54.310;10.112;2022-10-26T16:40:14;16.70;99.90
9177;DHT22;4623;54.310;10.112;2022-10-26T16:42:40;16.60;99.90
9177;DHT22;4623;54.310;10.112;2022-10-26T16:45:10;16.60;99.90
9177;DHT22;4623;54.310;10.112;2022-10-26T16:47:35;16.60;99.90
9177;DHT22;4623;54.310;10.112;2022-10-26T16:50:04;16.60;99.90
9177;DHT22;4623;54.310;10.112;2022-10-26T16:52:29;16.50;99.90
9177;DHT22;4623;54.310;10.112;2022-10-26T16:54:55;16.50;99.90
9177;DHT22;4623;54.310;10.112;2022-10-26T16:57:21;16.40;99.90
9177;DHT22;4623;54.310;10.112;2022-10-26T16:59:46;16.40;99.90
9177;DHT22;4623;54.310;10.112;2022-10-26T17:02:13;16.40;99.90
9177;DHT22;4623;54.310;10.112;2022-10-26T17:04:39;16.40;99.90
9177;DHT22;4623;54.310;10.112;2022-10-26T17:07:04;16.40;99.90
9177;DHT22;4623;54.310;10.112;2022-10-26T17:09:30;16.30;99.90
9177;DHT22;4623;54.310;10.112;2022-10-26T17:11:56;16.30;99.90
9177;DHT22;4623;54.310;10.112;2022-10-26T17:14:21;16.30;99.90
9177;DHT22;4623;54.310;10.112;2022-10-26T17:16:47;16.20;99.90
9177;DHT22;4623;54.310;10.112;2022-10-26T17:19:13;16.20;99.90
9177;DHT22;4623;54.310;10.112;2022-10-26T17:21:38;16.20;99.90
9177;DHT22;4623;54.310;10.112;2022-10-26T17:24:04;16.20;99.90
9177;DHT22;4623;54.310;10.112;2022-10-26T17:26:31;16.20;99.90
9177;DHT22;4623;54.310;10.112;2022-10-26T17:28:57;16.10;99.90
9177;DHT22;4623;54.310;10.112;2022-10-26T17:31:24;16.10;99.90
9177;DHT22;4623;54.310;10.112;2022-10-26T17:33:50;16.10;99.90
9177;DHT22;4623;54.310;10.112;2022-10-26T17:36:18;16.00;99.90
9177;DHT22;4623;54.310;10.112;2022-10-26T17:38:47;16.00;99.90
9177;DHT22;4623;54.310;10.112;2022-10-26T17:41:14;16.00;99.90
9177;DHT22;4623;54.310;10.112;2022-10-26T17:43:42;16.00;99.90
9177;DHT22;4623;54.310;10.112;2022-10-26T17:46:10;16.00;99.90
9177;DHT22;4623;54.310;10.112;2022-10-26T17:48:36;16.00;99.90
9177;DHT22;4623;54.310;10.112;2022-10-26T17:51:10;16.00;99.90
9177;DHT22;4623;54.310;10.112;2022-10-26T17:53:36;16.00;99.90
9177;DHT22;4623;54.310;10.112;2022-10-26T17:56:04;16.00;99.90
9177;DHT22;4623;54.310;10.112;2022-10-26T17:58:31;16.00;99.90
9177;DHT22;4623;54.310;10.112;2022-10-26T18:01:04;16.00;99.90
9177;DHT22;4623;54.310;10.112;2022-10-26T18:03:30;16.00;99.90
9177;DHT22;4623;54.310;10.112;2022-10-26T18:05:57;15.90;99.90
9177;DHT22;4623;54.310;10.112;2022-10-26T18:08:23;15.90;99.90